createdAt,value
2022-07-30T00:01:10.920Z,20.48
2022-07-30T00:03:43.468Z,20.41
2022-07-30T00:06:15.112Z,20.40
2022-07-30T00:08:47.000Z,20.37
2022-07-30T00:11:18.564Z,20.32
2022-07-30T00:13:50.524Z,20.29
2022-07-30T00:16:22.171Z,20.27
2022-07-30T00:18:54.088Z,20.23
2022-07-30T00:21:35.702Z,20.16
2022-07-30T00:24:09.054Z,20.14
2022-07-30T00:26:40.654Z,20.11
2022-07-30T00:29:12.652Z,20.05
2022-07-30T00:31:44.286Z,20.04
2022-07-30T00:34:16.225Z,19.98
2022-07-30T00:36:47.867Z,19.95
2022-07-30T00:39:19.685Z,19.91
2022-07-30T00:41:51.193Z,19.86
2022-07-30T00:44:23.220Z,19.85
2022-07-30T00:46:54.834Z,19.84
2022-07-30T00:49:27.138Z,19.79
2022-07-30T00:51:58.787Z,19.79
2022-07-30T00:54:30.575Z,19.75
2022-07-30T00:57:02.332Z,19.74
2022-07-30T00:59:34.806Z,19.71
2022-07-30T01:02:06.366Z,19.70
2022-07-30T01:04:38.320Z,19.68
2022-07-30T01:07:09.867Z,19.64
2022-07-30T01:09:41.790Z,19.61
2022-07-30T01:12:20.005Z,19.59
2022-07-30T01:14:51.518Z,19.54
2022-07-30T01:17:23.330Z,19.56
2022-07-30T01:19:58.811Z,19.55
2022-07-30T01:22:31.233Z,19.53
2022-07-30T01:25:02.977Z,19.54
2022-07-30T01:27:34.969Z,19.53
2022-07-30T01:30:06.491Z,19.51
2022-07-30T01:32:38.303Z,19.51
2022-07-30T01:35:09.803Z,19.49
2022-07-30T01:37:41.734Z,19.50
2022-07-30T01:40:14.616Z,19.51
2022-07-30T01:42:46.739Z,19.50
2022-07-30T01:45:18.229Z,19.44
2022-07-30T01:47:50.051Z,19.43
2022-07-30T01:50:21.551Z,19.39
2022-07-30T01:52:53.368Z,19.35
2022-07-30T01:55:25.770Z,19.32
2022-07-30T01:57:57.652Z,19.32
2022-07-30T02:00:30.751Z,19.27
2022-07-30T02:03:02.713Z,19.28
2022-07-30T02:05:34.256Z,19.24
2022-07-30T02:08:06.229Z,19.26
2022-07-30T02:10:37.784Z,19.22
2022-07-30T02:13:09.585Z,19.24
2022-07-30T02:15:41.101Z,19.13
2022-07-30T02:18:12.936Z,19.14
2022-07-30T02:20:44.450Z,19.08
2022-07-30T02:23:20.555Z,19.07
2022-07-30T02:25:52.094Z,19.02
2022-07-30T02:28:24.003Z,18.99
2022-07-30T02:30:55.657Z,18.98
2022-07-30T02:33:27.483Z,18.95
2022-07-30T02:35:59.000Z,18.91
2022-07-30T02:38:30.944Z,18.86
2022-07-30T02:41:02.448Z,18.82
2022-07-30T02:43:36.279Z,18.81
2022-07-30T02:46:08.112Z,18.77
2022-07-30T02:48:39.999Z,18.74
2022-07-30T02:51:11.574Z,18.72
2022-07-30T02:53:43.589Z,18.66
2022-07-30T02:56:15.960Z,18.62
2022-07-30T02:58:47.762Z,18.61
2022-07-30T03:01:19.310Z,18.54
2022-07-30T03:03:51.283Z,18.51
2022-07-30T03:06:23.540Z,18.49
2022-07-30T03:08:55.546Z,18.45
2022-07-30T03:11:27.052Z,18.45
2022-07-30T03:13:58.578Z,18.42
2022-07-30T03:16:30.508Z,18.40
2022-07-30T03:19:02.913Z,18.42
2022-07-30T03:21:36.845Z,18.36
2022-07-30T03:24:08.716Z,18.40
2022-07-30T03:26:40.208Z,18.38
2022-07-30T03:29:11.868Z,18.36
2022-07-30T03:31:43.487Z,18.35
2022-07-30T03:34:17.329Z,18.35
2022-07-30T03:36:49.500Z,18.28
2022-07-30T03:39:21.370Z,18.31
2022-07-30T03:41:54.635Z,18.35
2022-07-30T03:44:26.609Z,18.40
2022-07-30T03:46:58.233Z,18.44
2022-07-30T03:49:30.239Z,18.47
2022-07-30T03:52:02.112Z,18.54
2022-07-30T03:54:34.097Z,18.60
2022-07-30T03:57:06.163Z,18.65
2022-07-30T03:59:38.043Z,18.72
2022-07-30T04:02:09.970Z,18.75
2022-07-30T04:04:41.999Z,18.75
2022-07-30T04:07:13.524Z,18.75
2022-07-30T04:09:45.328Z,18.81
2022-07-30T04:12:16.824Z,18.85
2022-07-30T04:14:48.656Z,18.85
2022-07-30T04:17:20.185Z,18.88
2022-07-30T04:19:51.874Z,18.87
2022-07-30T04:22:23.427Z,18.90
2022-07-30T04:24:57.006Z,18.94
2022-07-30T04:27:28.539Z,18.97
2022-07-30T04:30:00.593Z,19.04
2022-07-30T04:32:32.093Z,19.09
2022-07-30T04:35:04.417Z,19.10
2022-07-30T04:37:35.919Z,19.09
2022-07-30T04:40:07.876Z,19.08
2022-07-30T04:42:39.419Z,19.14
2022-07-30T04:45:11.961Z,19.22
2022-07-30T04:47:45.401Z,19.24
2022-07-30T04:50:17.888Z,19.26
2022-07-30T04:52:49.393Z,19.30
2022-07-30T04:55:21.166Z,19.40
2022-07-30T04:57:52.682Z,19.49
2022-07-30T05:00:24.529Z,19.50
2022-07-30T05:02:56.029Z,19.50
2022-07-30T05:05:28.271Z,19.53
2022-07-30T05:07:59.785Z,19.68
2022-07-30T05:10:31.605Z,19.69
2022-07-30T05:13:03.102Z,19.81
2022-07-30T05:15:35.970Z,19.87
2022-07-30T05:18:08.829Z,20.00
2022-07-30T05:20:40.829Z,19.98
2022-07-30T05:23:12.342Z,20.15
2022-07-30T05:25:44.265Z,20.06
2022-07-30T05:28:15.813Z,20.14
2022-07-30T05:30:47.597Z,20.18
2022-07-30T05:33:19.421Z,20.54
2022-07-30T05:35:52.324Z,20.54
2022-07-30T05:38:24.735Z,20.52
2022-07-30T05:41:00.722Z,20.60
2022-07-30T05:43:32.212Z,20.77
2022-07-30T05:46:04.148Z,20.91
2022-07-30T05:48:36.672Z,21.02
2022-07-30T05:51:08.694Z,21.18
2022-07-30T05:53:40.253Z,21.24
2022-07-30T05:56:12.125Z,21.59
2022-07-30T05:58:43.640Z,21.43
2022-07-30T06:01:15.659Z,21.22
2022-07-30T06:03:47.230Z,21.14
2022-07-30T06:06:22.851Z,21.07
2022-07-30T06:08:54.875Z,21.05
2022-07-30T06:11:26.775Z,21.00
2022-07-30T06:13:58.294Z,21.09
2022-07-30T06:16:31.172Z,21.14
2022-07-30T06:19:02.697Z,21.24
2022-07-30T06:22:06.092Z,21.43
2022-07-30T06:24:26.031Z,21.29
2022-07-30T06:27:01.404Z,21.48
2022-07-30T06:29:33.381Z,21.83
2022-07-30T06:32:05.417Z,21.83
2022-07-30T06:34:36.927Z,21.93
2022-07-30T06:37:08.839Z,21.73
2022-07-30T06:39:56.012Z,21.90
2022-07-30T06:42:29.487Z,22.09
2022-07-30T06:45:01.001Z,22.23
2022-07-30T06:47:34.912Z,22.14
2022-07-30T06:50:06.952Z,22.35
2022-07-30T06:52:40.826Z,22.33
2022-07-30T06:55:12.352Z,22.47
2022-07-30T06:57:44.288Z,22.44
2022-07-30T07:00:16.866Z,22.20
2022-07-30T07:02:48.683Z,22.31
2022-07-30T07:05:22.063Z,22.26
2022-07-30T07:07:59.353Z,22.35
2022-07-30T07:10:31.355Z,22.33
2022-07-30T07:13:03.197Z,22.40
2022-07-30T07:15:37.382Z,22.65
2022-07-30T07:18:09.471Z,22.80
2022-07-30T07:20:41.021Z,22.90
2022-07-30T07:23:12.792Z,23.01
2022-07-30T07:25:45.292Z,22.85
2022-07-30T07:28:17.132Z,23.07
2022-07-30T07:30:48.691Z,23.22
2022-07-30T07:33:20.724Z,23.24
2022-07-30T07:35:54.158Z,23.33
2022-07-30T07:38:25.964Z,23.42
2022-07-30T07:40:57.516Z,23.24
2022-07-30T07:43:29.381Z,23.36
2022-07-30T07:46:01.031Z,23.51
2022-07-30T07:48:32.885Z,23.55
2022-07-30T07:51:04.446Z,23.54
2022-07-30T07:53:41.508Z,23.85
2022-07-30T07:56:13.982Z,24.00
2022-07-30T07:58:45.927Z,23.98
2022-07-30T08:01:17.739Z,24.02
2022-07-30T08:03:49.564Z,24.24
2022-07-30T08:06:21.061Z,24.42
2022-07-30T08:08:54.143Z,24.60
2022-07-30T08:11:25.668Z,24.84
2022-07-30T08:13:57.466Z,24.56
2022-07-30T08:16:29.141Z,24.81
2022-07-30T08:19:01.001Z,24.98
2022-07-30T08:21:32.520Z,25.05
2022-07-30T08:24:06.073Z,24.97
2022-07-30T08:26:37.644Z,25.15
2022-07-30T08:29:14.155Z,25.04
2022-07-30T08:31:48.348Z,25.25
2022-07-30T08:34:21.012Z,25.15
2022-07-30T08:36:57.556Z,25.27
2022-07-30T08:39:29.461Z,25.41
2022-07-30T08:42:01.640Z,25.49
2022-07-30T08:44:33.651Z,25.38
2022-07-30T08:47:05.375Z,25.27
2022-07-30T08:49:37.320Z,25.41
2022-07-30T08:52:09.006Z,25.45
2022-07-30T08:54:41.159Z,25.78
2022-07-30T08:57:12.671Z,26.01
2022-07-30T08:59:59.235Z,26.25
2022-07-30T09:02:32.967Z,25.95
2022-07-30T09:05:04.911Z,25.95
2022-07-30T09:07:36.422Z,26.17
2022-07-30T09:10:08.587Z,26.20
2022-07-30T09:12:40.149Z,26.14
2022-07-30T09:15:12.015Z,26.02
2022-07-30T09:17:43.511Z,25.79
2022-07-30T09:20:15.361Z,26.28
2022-07-30T09:22:46.901Z,26.00
2022-07-30T09:25:18.767Z,26.52
2022-07-30T09:27:50.334Z,26.68
2022-07-30T09:30:22.168Z,26.68
2022-07-30T09:32:53.685Z,26.80
2022-07-30T09:35:25.221Z,26.47
2022-07-30T09:37:56.733Z,26.67
2022-07-30T09:40:32.375Z,27.01
2022-07-30T09:43:04.540Z,26.80
2022-07-30T09:45:36.479Z,26.61
2022-07-30T09:48:07.967Z,26.99
2022-07-30T09:50:39.774Z,27.19
2022-07-30T09:53:12.102Z,27.65
2022-07-30T09:55:44.991Z,28.24
2022-07-30T09:58:26.571Z,28.22
2022-07-30T10:01:00.150Z,28.44
2022-07-30T10:03:33.974Z,28.68
2022-07-30T10:06:11.164Z,29.03
2022-07-30T10:08:46.057Z,29.42
2022-07-30T10:11:22.518Z,29.52
2022-07-30T10:13:54.723Z,29.29
2022-07-30T10:16:26.619Z,29.09
2022-07-30T10:18:59.994Z,29.22
2022-07-30T10:21:32.622Z,29.40
2022-07-30T10:24:07.649Z,29.17
2022-07-30T10:26:39.513Z,28.69
2022-07-30T10:29:13.145Z,28.66
2022-07-30T10:31:54.362Z,28.85
2022-07-30T10:34:27.677Z,28.76
2022-07-30T10:37:00.794Z,28.37
2022-07-30T10:39:36.067Z,28.56
2022-07-30T10:42:09.054Z,28.68
2022-07-30T10:44:40.661Z,29.09
2022-07-30T10:47:14.369Z,29.22
2022-07-30T10:49:45.936Z,29.57
2022-07-30T10:52:19.985Z,29.47
2022-07-30T10:54:51.496Z,30.14
2022-07-30T10:57:32.449Z,30.27
2022-07-30T11:00:13.619Z,30.54
2022-07-30T11:02:47.524Z,30.54
2022-07-30T11:05:27.119Z,30.84
2022-07-30T11:08:10.971Z,31.22
2022-07-30T11:10:45.881Z,31.54
2022-07-30T11:13:17.912Z,31.25
2022-07-30T11:15:56.624Z,31.84
2022-07-30T11:18:28.996Z,31.21
2022-07-30T11:21:00.558Z,31.75
2022-07-30T11:23:37.706Z,31.44
2022-07-30T11:26:14.544Z,31.74
2022-07-30T11:28:49.567Z,31.91
2022-07-30T11:31:21.466Z,31.64
2022-07-30T11:34:02.931Z,31.25
2022-07-30T11:36:34.453Z,32.01
2022-07-30T11:39:07.709Z,32.33
2022-07-30T11:41:39.215Z,32.06
2022-07-30T11:44:11.113Z,32.09
2022-07-30T11:46:42.608Z,31.95
2022-07-30T11:49:16.011Z,31.71
2022-07-30T11:51:47.599Z,31.11
2022-07-30T11:54:19.394Z,31.09
2022-07-30T11:56:50.927Z,31.37
2022-07-30T11:59:23.031Z,31.91
2022-07-30T12:01:56.905Z,32.05
2022-07-30T12:04:28.744Z,31.65
2022-07-30T12:07:00.526Z,31.86
2022-07-30T12:09:33.166Z,31.67
2022-07-30T12:12:05.795Z,31.62
2022-07-30T12:14:39.315Z,31.79
2022-07-30T12:17:14.986Z,32.30
2022-07-30T12:19:48.400Z,32.67
2022-07-30T12:22:20.449Z,31.75
2022-07-30T12:24:52.306Z,32.30
2022-07-30T12:27:23.798Z,32.56
2022-07-30T12:29:55.657Z,32.01
2022-07-30T12:32:27.162Z,32.92
2022-07-30T12:34:59.130Z,32.59
2022-07-30T12:40:02.268Z,32.69
2022-07-30T12:42:33.821Z,33.20
2022-07-30T12:45:06.623Z,32.61
2022-07-30T12:47:38.632Z,32.86
2022-07-30T12:50:10.637Z,33.16
2022-07-30T12:52:42.264Z,33.63
2022-07-30T12:55:14.069Z,32.74
2022-07-30T12:57:45.573Z,31.27
2022-07-30T13:00:17.915Z,30.55
2022-07-30T13:02:49.685Z,31.37
2022-07-30T13:05:21.735Z,31.58
2022-07-30T13:07:53.251Z,32.67
2022-07-30T13:10:30.045Z,32.35
2022-07-30T13:13:02.553Z,32.66
2022-07-30T13:15:34.440Z,32.54
2022-07-30T13:18:05.942Z,32.99
2022-07-30T13:20:37.835Z,33.33
2022-07-30T13:23:09.375Z,32.88
2022-07-30T13:25:41.348Z,33.80
2022-07-30T13:28:12.859Z,33.94
2022-07-30T13:30:44.745Z,34.27
2022-07-30T13:33:16.269Z,33.54
2022-07-30T13:35:48.327Z,33.14
2022-07-30T13:38:19.829Z,32.12
2022-07-30T13:40:51.771Z,31.23
2022-07-30T13:43:23.340Z,32.62
2022-07-30T13:45:55.241Z,32.50
2022-07-30T13:48:31.817Z,32.12
2022-07-30T13:51:03.976Z,32.87
2022-07-30T13:53:35.493Z,32.66
2022-07-30T13:56:12.361Z,32.93
2022-07-30T13:58:44.486Z,33.08
2022-07-30T14:01:18.044Z,31.77
2022-07-30T14:03:50.789Z,32.03
2022-07-30T14:06:23.095Z,33.12
2022-07-30T14:08:54.619Z,32.26
2022-07-30T14:11:26.452Z,31.67
2022-07-30T14:13:57.960Z,31.96
2022-07-30T14:16:44.749Z,32.76
2022-07-30T14:19:22.989Z,31.54
2022-07-30T14:21:56.535Z,32.55
2022-07-30T14:24:28.043Z,32.29
2022-07-30T14:27:00.488Z,33.09
2022-07-30T14:29:32.215Z,33.13
2022-07-30T14:32:04.069Z,33.19
2022-07-30T14:34:35.569Z,33.35
2022-07-30T14:37:07.458Z,33.15
2022-07-30T14:39:45.967Z,33.53
2022-07-30T14:42:17.834Z,31.68
2022-07-30T14:44:50.767Z,31.33
2022-07-30T14:47:25.008Z,31.49
2022-07-30T14:49:56.513Z,32.67
2022-07-30T14:52:28.409Z,32.22
2022-07-30T14:54:59.907Z,32.89
2022-07-30T14:57:35.608Z,32.83
2022-07-30T15:00:13.338Z,33.34
2022-07-30T15:02:45.276Z,32.79
2022-07-30T15:05:16.825Z,32.49
2022-07-30T15:07:48.617Z,32.59
2022-07-30T15:10:20.150Z,33.31
2022-07-30T15:12:52.007Z,32.71
2022-07-30T15:15:25.082Z,32.72
2022-07-30T15:18:01.003Z,32.80
2022-07-30T15:20:32.499Z,32.89
2022-07-30T15:23:04.571Z,32.58
2022-07-30T15:25:36.049Z,31.23
2022-07-30T15:28:08.235Z,30.88
2022-07-30T15:30:39.819Z,30.51
2022-07-30T15:33:11.748Z,30.44
2022-07-30T15:35:43.247Z,30.14
2022-07-30T15:38:15.173Z,31.01
2022-07-30T15:40:48.072Z,31.18
2022-07-30T15:43:19.926Z,31.52
2022-07-30T15:45:56.231Z,31.66
2022-07-30T15:48:28.506Z,32.13
2022-07-30T15:51:00.633Z,32.16
2022-07-30T15:53:32.635Z,31.96
2022-07-30T15:56:04.520Z,31.54
2022-07-30T15:58:40.354Z,31.58
2022-07-30T16:01:14.684Z,31.75
2022-07-30T16:03:46.547Z,30.90
2022-07-30T16:06:18.063Z,30.80
2022-07-30T16:08:49.956Z,30.61
2022-07-30T16:11:21.488Z,31.00
2022-07-30T16:13:53.472Z,30.89
2022-07-30T16:16:24.984Z,30.46
2022-07-30T16:18:56.841Z,29.29
2022-07-30T16:21:28.354Z,29.26
2022-07-30T16:24:00.170Z,29.15
2022-07-30T16:26:31.729Z,28.67
2022-07-30T16:29:03.558Z,28.07
2022-07-30T16:31:35.158Z,27.88
2022-07-30T16:34:07.071Z,27.92
2022-07-30T16:36:38.602Z,27.86
2022-07-30T16:39:10.512Z,27.56
2022-07-30T16:41:42.472Z,27.44
2022-07-30T16:44:14.334Z,27.49
2022-07-30T16:46:45.838Z,27.22
2022-07-30T16:49:17.691Z,27.19
2022-07-30T16:51:49.261Z,27.09
2022-07-30T16:54:21.161Z,26.97
2022-07-30T16:56:52.840Z,26.48
2022-07-30T16:59:24.669Z,26.62
2022-07-30T17:01:56.268Z,26.76
2022-07-30T17:04:28.120Z,26.74
2022-07-30T17:06:59.630Z,26.77
2022-07-30T17:09:36.411Z,26.78
2022-07-30T17:12:11.899Z,26.83
2022-07-30T17:14:44.403Z,26.81
2022-07-30T17:17:15.924Z,26.58
2022-07-30T17:19:47.727Z,26.41
2022-07-30T17:22:19.210Z,26.28
2022-07-30T17:24:50.998Z,26.09
2022-07-30T17:27:22.588Z,26.12
2022-07-30T17:29:54.408Z,26.22
2022-07-30T17:32:25.998Z,26.04
2022-07-30T17:34:57.952Z,26.03
2022-07-30T17:37:29.475Z,26.08
2022-07-30T17:40:26.246Z,25.98
2022-07-30T17:42:52.795Z,26.07
2022-07-30T17:45:24.551Z,26.02
2022-07-30T17:47:56.044Z,25.86
2022-07-30T17:50:27.847Z,25.90
2022-07-30T17:52:59.386Z,25.78
2022-07-30T17:55:31.448Z,25.70
2022-07-30T17:58:02.988Z,25.72
2022-07-30T18:00:35.648Z,25.65
2022-07-30T18:03:07.386Z,25.60
2022-07-30T18:05:39.159Z,25.58
2022-07-30T18:08:10.680Z,25.50
2022-07-30T18:10:42.757Z,25.43
2022-07-30T18:13:26.352Z,25.26
2022-07-30T18:15:59.225Z,25.19
2022-07-30T18:18:30.764Z,25.20
2022-07-30T18:21:02.543Z,25.11
2022-07-30T18:23:35.082Z,25.04
2022-07-30T18:26:07.155Z,25.00
2022-07-30T18:31:10.465Z,24.79
2022-07-30T18:33:42.026Z,24.71
2022-07-30T18:36:13.832Z,24.66
2022-07-30T18:38:49.603Z,24.58
2022-07-30T18:41:23.886Z,24.52
2022-07-30T18:43:55.407Z,24.41
2022-07-30T18:46:27.460Z,24.30
2022-07-30T18:49:10.778Z,24.18
2022-07-30T18:51:47.483Z,24.07
2022-07-30T18:54:19.738Z,24.02
2022-07-30T18:56:51.587Z,24.00
2022-07-30T18:59:23.145Z,23.91
2022-07-30T19:01:55.257Z,23.90
2022-07-30T19:04:26.799Z,23.81
2022-07-30T19:06:58.630Z,23.70
2022-07-30T19:09:30.152Z,23.68
2022-07-30T19:12:02.217Z,23.63
2022-07-30T19:14:34.040Z,23.60
2022-07-30T19:17:13.985Z,23.61
2022-07-30T19:19:46.853Z,23.61
2022-07-30T19:22:29.504Z,23.48
2022-07-30T19:25:02.038Z,23.41
2022-07-30T19:27:33.574Z,23.35
2022-07-30T19:30:05.601Z,23.25
2022-07-30T19:32:37.095Z,23.12
2022-07-30T19:35:13.377Z,23.08
2022-07-30T19:37:46.519Z,22.99
2022-07-30T19:40:18.858Z,22.99
2022-07-30T19:42:52.643Z,22.91
2022-07-30T19:45:27.520Z,22.87
2022-07-30T19:48:29.383Z,22.78
2022-07-30T19:51:03.266Z,22.77
2022-07-30T19:53:36.334Z,22.69
2022-07-30T19:56:10.786Z,22.63
2022-07-30T19:58:42.931Z,22.57
2022-07-30T20:01:15.728Z,22.50
2022-07-30T20:03:47.473Z,22.45
2022-07-30T20:06:19.324Z,22.33
2022-07-30T20:08:52.454Z,22.26
2022-07-30T20:11:35.998Z,22.20
2022-07-30T20:14:08.442Z,22.11
2022-07-30T20:16:40.234Z,22.03
2022-07-30T20:19:15.816Z,21.99
2022-07-30T20:21:54.240Z,21.93
2022-07-30T20:24:29.281Z,21.85
2022-07-30T20:27:01.700Z,21.78
2022-07-30T20:29:53.527Z,21.67
2022-07-30T20:32:25.719Z,21.64
2022-07-30T20:34:58.239Z,21.61
2022-07-30T20:37:29.891Z,21.54
2022-07-30T20:40:02.159Z,21.50
2022-07-30T20:42:33.665Z,21.46
2022-07-30T20:45:06.354Z,21.39
2022-07-30T20:47:41.095Z,21.29
2022-07-30T20:50:14.210Z,21.17
2022-07-30T20:52:48.213Z,21.18
2022-07-30T20:55:22.222Z,21.12
2022-07-30T20:58:01.234Z,20.98
2022-07-30T21:00:49.598Z,21.02
2022-07-30T21:03:37.806Z,21.03
2022-07-30T21:06:09.365Z,20.96
2022-07-30T21:08:43.366Z,20.90
2022-07-30T21:11:14.935Z,20.84
2022-07-30T21:13:47.697Z,20.82
2022-07-30T21:16:21.401Z,20.77
2022-07-30T21:18:53.595Z,20.73
2022-07-30T21:21:28.967Z,20.65
2022-07-30T21:24:05.275Z,20.59
2022-07-30T21:26:36.784Z,20.54
2022-07-30T21:29:10.486Z,20.53
2022-07-30T21:34:40.139Z,20.37
2022-07-30T21:37:13.050Z,20.34
2022-07-30T21:39:47.743Z,20.30
2022-07-30T21:42:25.928Z,20.30
2022-07-30T21:45:02.360Z,20.27
2022-07-30T21:47:34.754Z,20.25
2022-07-30T21:50:06.572Z,20.24
2022-07-30T21:52:40.573Z,20.17
2022-07-30T21:55:13.291Z,19.31
2022-07-30T21:58:04.341Z,20.07
2022-07-30T22:00:36.485Z,20.01
2022-07-30T22:06:06.522Z,19.92
2022-07-30T22:08:44.689Z,19.92
2022-07-30T22:11:20.834Z,19.81
2022-07-30T22:13:54.180Z,19.64
2022-07-30T22:16:25.950Z,19.60
2022-07-30T22:18:57.922Z,19.52
2022-07-30T22:21:29.440Z,19.45
2022-07-30T22:24:01.957Z,19.36
2022-07-30T22:26:33.680Z,19.31
2022-07-30T22:29:05.977Z,19.28
2022-07-30T22:31:39.469Z,19.31
2022-07-30T22:34:11.976Z,19.29
2022-07-30T22:36:48.374Z,19.27
2022-07-30T22:39:21.130Z,19.26
2022-07-30T22:41:54.033Z,19.21
2022-07-30T22:44:25.937Z,19.18
2022-07-30T22:46:57.435Z,19.17
2022-07-30T22:49:52.024Z,19.12
2022-07-30T22:52:23.286Z,19.07
2022-07-30T22:54:59.669Z,19.04
2022-07-30T22:57:40.887Z,18.97
2022-07-30T23:00:12.778Z,18.91
2022-07-30T23:02:45.839Z,18.82
2022-07-30T23:05:17.739Z,18.82
2022-07-30T23:07:49.302Z,18.80
2022-07-30T23:10:21.689Z,18.74
2022-07-30T23:12:31.256Z,20.40
2022-07-30T23:12:32.268Z,19.93
2022-07-30T23:12:56.509Z,18.70
2022-07-30T23:15:28.480Z,18.68
2022-07-30T23:17:59.975Z,18.58
2022-07-30T23:20:32.137Z,18.56
2022-07-30T23:23:04.926Z,18.51
2022-07-30T23:25:38.912Z,18.47
2022-07-30T23:28:11.542Z,18.42
2022-07-30T23:30:43.839Z,18.39
2022-07-30T23:33:15.331Z,18.34
2022-07-30T23:35:47.188Z,18.33
2022-07-30T23:38:18.751Z,18.29
2022-07-30T23:40:50.728Z,18.19
2022-07-30T23:43:22.230Z,18.10
2022-07-30T23:45:54.025Z,18.10
2022-07-30T23:48:25.541Z,18.07
2022-07-30T23:50:57.379Z,18.07
2022-07-30T23:53:28.872Z,17.98
2022-07-30T23:56:00.893Z,17.87
2022-07-30T23:58:32.435Z,17.90
